Time;durP1;ratioP1;P1;durP2;ratioP2;P2;SDS_P1;SDS_P2;PMS_P1;PMS_P2;Temp;Humidity;BMP_temperature;BMP_pressure;BME280_temperature;BME280_humidity;BME280_pressure;Samples;Min_cycle;Max_cycle;Signal;HPM_P1;HPM_P2
2022/12/23 00:01:23;;;;;;;9.90;6.70;;;;;;;7.20;100.00;99463.36;105820;1285;73302;-74
2022/12/23 00:03:50;;;;;;;11.50;7.30;;;;;;;7.22;100.00;99456.82;105793;1291;70956;-74
2022/12/23 00:06:18;;;;;;;10.50;6.90;;;;;;;7.21;100.00;99447.31;105849;1291;72770;-74
2022/12/23 00:08:45;;;;;;;10.60;7.50;;;;;;;7.22;100.00;99450.61;105753;1284;60152;-75
2022/12/23 00:11:18;;;;;;;10.00;6.50;;;;;;;7.24;100.00;99444.56;105734;1292;60464;-75
2022/12/23 00:16:30;;;;;;;9.60;6.80;;;;;;;7.30;100.00;99439.11;105794;1290;72179;-75
2022/12/23 00:18:56;;;;;;;9.50;6.60;;;;;;;7.31;100.00;99440.84;105787;1288;73493;-75
2022/12/23 00:21:23;;;;;;;10.40;6.60;;;;;;;7.33;100.00;99440.64;105794;1292;58910;-75
2022/12/23 00:23:50;;;;;;;10.30;6.80;;;;;;;7.35;100.00;99442.52;105790;1284;58961;-75
2022/12/23 00:26:22;;;;;;;10.10;6.30;;;;;;;7.39;100.00;99440.87;105654;1277;74403;-76
2022/12/23 00:28:50;;;;;;;8.10;6.00;;;;;;;7.42;100.00;99442.75;105711;1285;69872;-76
2022/12/23 00:31:17;;;;;;;8.70;5.90;;;;;;;7.43;100.00;99435.58;105696;1292;72609;-75
2022/12/23 00:33:46;;;;;;;9.60;6.10;;;;;;;7.46;100.00;99435.47;105687;1294;59776;-75
2022/12/23 00:36:23;;;;;;;7.60;5.40;;;;;;;7.49;100.00;99438.59;105730;1292;59001;-75
2022/12/23 00:44:20;;;;;;;8.70;5.90;;;;;;;7.57;100.00;99442.14;105758;1291;72611;-77
2022/12/23 00:46:46;;;;;;;7.40;5.30;;;;;;;7.58;100.00;99441.34;105765;1287;61213;-74
2022/12/23 00:52:03;;;;;;;8.00;5.70;;;;;;;7.64;100.00;99435.91;105725;1284;73096;-74
2022/12/23 00:54:30;;;;;;;8.00;5.60;;;;;;;7.65;100.00;99432.77;105702;1291;69878;-74
2022/12/23 00:56:57;;;;;;;8.80;5.70;;;;;;;7.64;100.00;99427.11;105801;1284;71335;-74
2022/12/23 00:59:24;;;;;;;8.70;5.50;;;;;;;7.65;100.00;99426.27;105766;1290;60348;-74
2022/12/23 01:07:22;;;;;;;7.60;5.20;;;;;;;7.68;100.00;99423.71;105791;1284;70783;-73
2022/12/23 01:09:48;;;;;;;7.20;5.20;;;;;;;7.69;100.00;99420.02;105668;1285;71422;-73
2022/12/23 01:12:15;;;;;;;8.20;5.10;;;;;;;7.69;100.00;99421.64;105781;1290;58953;-72
2022/12/23 01:14:41;;;;;;;7.00;5.20;;;;;;;7.69;100.00;99425.23;105790;1290;59261;-73
2022/12/23 01:17:08;;;;;;;8.00;5.10;;;;;;;7.70;100.00;99430.88;105758;1284;58980;-73
2022/12/23 01:19:35;;;;;;;7.20;5.00;;;;;;;7.69;100.00;99431.35;105813;1291;69911;-73
2022/12/23 01:22:01;;;;;;;8.40;5.20;;;;;;;7.70;100.00;99429.70;105676;1288;60054;-73
2022/12/23 01:24:31;;;;;;;8.30;4.90;;;;;;;7.71;100.00;99435.76;105726;1284;59934;-73
2022/12/23 01:26:59;;;;;;;8.60;5.30;;;;;;;7.70;100.00;99434.94;105785;1288;59563;-73
2022/12/23 01:29:25;;;;;;;7.60;5.20;;;;;;;7.70;100.00;99438.75;105689;1292;73136;-73
2022/12/23 01:31:52;;;;;;;6.90;4.80;;;;;;;7.70;100.00;99439.04;105794;1291;69921;-73
2022/12/23 01:34:18;;;;;;;7.20;5.10;;;;;;;7.68;100.00;99441.56;105707;1287;72798;-72
2022/12/23 01:36:45;;;;;;;7.40;4.80;;;;;;;7.68;100.00;99441.70;105762;1284;59270;-73
2022/12/23 01:39:11;;;;;;;6.90;5.00;;;;;;;7.70;100.00;99441.68;105761;1290;59100;-73
2022/12/23 01:44:47;;;;;;;7.80;5.30;;;;;;;7.73;100.00;99444.66;105808;1283;70681;-73
2022/12/23 01:47:20;;;;;;;7.50;5.20;;;;;;;7.75;100.00;99442.95;105776;1291;71596;-73
2022/12/23 01:49:49;;;;;;;8.50;5.40;;;;;;;7.78;100.00;99444.92;105761;1292;61315;-73
2022/12/23 01:52:16;;;;;;;8.20;5.70;;;;;;;7.82;100.00;99444.04;105792;1284;59321;-72
2022/12/23 01:54:43;;;;;;;9.70;5.30;;;;;;;7.86;100.00;99445.94;105790;1282;74451;-72
2022/12/23 01:57:10;;;;;;;8.20;5.90;;;;;;;7.88;100.00;99447.34;105711;1284;70854;-72
2022/12/23 02:05:07;;;;;;;7.70;4.80;;;;;;;8.02;100.00;99449.21;105727;1284;59738;-73
2022/12/23 02:10:25;;;;;;;6.20;4.60;;;;;;;8.10;100.00;99448.64;105760;1284;69634;-73
2022/12/23 02:13:06;;;;;;;6.90;5.00;;;;;;;8.13;100.00;99448.27;105707;1285;72500;-73
2022/12/23 02:16:23;;;;;;;6.70;4.30;;;;;;;8.17;100.00;99448.27;105813;1277;60301;-72
2022/12/23 02:18:59;;;;;;;5.90;4.00;;;;;;;8.20;100.00;99456.45;105673;1291;58957;-73
2022/12/23 02:22:10;;;;;;;4.80;3.90;;;;;;;8.22;100.00;99462.45;105798;1291;74485;-73
2022/12/23 02:25:00;;;;;;;5.80;3.80;;;;;;;8.24;100.00;99469.05;105630;1291;71328;-72
2022/12/23 02:27:43;;;;;;;4.40;3.50;;;;;;;8.25;100.00;99471.54;105748;1291;71617;-73
2022/12/23 02:30:54;;;;;;;4.60;3.00;;;;;;;8.26;100.00;99473.38;105563;1293;59878;-73
2022/12/23 02:33:35;;;;;;;4.00;2.90;;;;;;;8.29;100.00;99471.25;105393;1297;59069;-73
2022/12/23 02:36:37;;;;;;;3.90;3.10;;;;;;;8.31;100.00;99472.98;105328;1297;73375;-73
2022/12/23 02:39:18;;;;;;;3.60;2.80;;;;;;;8.32;100.00;99474.77;105662;1285;70184;-73
2022/12/23 02:41:56;;;;;;;4.80;2.90;;;;;;;8.33;100.00;99478.52;105790;1284;72518;-73
2022/12/23 02:44:32;;;;;;;4.30;3.00;;;;;;;8.35;100.00;99480.19;105753;1291;61340;-73
2022/12/23 02:47:04;;;;;;;4.10;3.10;;;;;;;8.37;100.00;99479.16;105724;1288;61737;-73
2022/12/23 02:49:42;;;;;;;4.40;3.40;;;;;;;8.38;100.00;99480.83;105716;1292;74509;-73
2022/12/23 02:52:14;;;;;;;3.50;3.00;;;;;;;8.39;100.00;99481.95;105800;1290;70259;-73
2022/12/23 02:54:47;;;;;;;4.20;3.10;;;;;;;8.40;100.00;99484.48;105754;1284;72761;-73
2022/12/23 02:57:18;;;;;;;4.40;3.20;;;;;;;8.41;100.00;99482.98;105725;1292;59118;-73
2022/12/23 02:59:49;;;;;;;4.40;2.80;;;;;;;8.42;100.00;99481.10;105717;1291;58994;-73
2022/12/23 03:02:16;;;;;;;5.00;3.10;;;;;;;8.43;100.00;99478.02;105603;1278;72418;-73
2022/12/23 03:04:43;;;;;;;4.30;3.10;;;;;;;8.43;100.00;99483.46;105760;1291;70395;-73
2022/12/23 03:07:28;;;;;;;5.50;3.70;;;;;;;8.42;100.00;99486.91;105698;1284;59067;-73
2022/12/23 03:10:12;;;;;;;5.40;3.60;;;;;;;8.41;100.00;99482.46;105713;1284;59791;-73
2022/12/23 03:13:02;;;;;;;4.90;3.40;;;;;;;8.41;100.00;99481.77;105765;1281;60183;-73
2022/12/23 03:15:36;;;;;;;4.40;3.70;;;;;;;8.40;100.00;99488.05;105636;1292;73144;-73
2022/12/23 03:18:45;;;;;;;5.90;4.00;;;;;;;8.41;100.00;99488.48;105778;1291;69888;-73
2022/12/23 03:21:21;;;;;;;5.40;3.90;;;;;;;8.42;100.00;99485.52;105683;1292;72893;-73
2022/12/23 03:24:07;;;;;;;5.10;3.60;;;;;;;8.42;100.00;99483.05;105706;1291;59875;-73
2022/12/23 03:26:39;;;;;;;5.00;4.00;;;;;;;8.42;100.00;99485.83;105793;1291;59459;-73
2022/12/23 03:29:17;;;;;;;5.50;4.20;;;;;;;8.44;100.00;99491.08;105721;1291;72907;-73
2022/12/23 03:31:45;;;;;;;5.10;4.00;;;;;;;8.46;100.00;99490.16;105852;1284;68824;-73
2022/12/23 03:34:15;;;;;;;5.40;4.00;;;;;;;8.47;100.00;99487.13;105689;1291;72459;-73
2022/12/23 03:36:51;;;;;;;5.40;4.00;;;;;;;8.49;100.00;99480.55;105748;1290;59632;-73
2022/12/23 03:39:21;;;;;;;4.70;3.90;;;;;;;8.51;100.00;99482.20;105693;1288;60133;-73
2022/12/23 03:41:59;;;;;;;4.80;3.60;;;;;;;8.54;100.00;99481.29;105629;1292;73850;-73
2022/12/23 03:44:29;;;;;;;5.30;3.70;;;;;;;8.57;100.00;99483.59;105774;1291;69616;-73
2022/12/23 03:47:04;;;;;;;5.00;3.90;;;;;;;8.60;100.00;99488.44;105772;1283;71125;-73
2022/12/23 03:49:36;;;;;;;5.50;4.00;;;;;;;8.61;100.00;99491.61;105777;1291;59584;-73
2022/12/23 03:52:10;;;;;;;4.80;3.50;;;;;;;8.62;100.00;99494.30;105753;1281;60155;-73
2022/12/23 03:54:52;;;;;;;5.30;3.70;;;;;;;8.61;100.00;99494.09;105709;1290;75301;-73
2022/12/23 03:57:27;;;;;;;4.60;3.50;;;;;;;8.61;100.00;99495.71;105688;1291;70498;-73
2022/12/23 03:59:53;;;;;;;4.50;3.60;;;;;;;8.61;100.00;99505.36;105744;1291;72482;-73
2022/12/23 04:02:58;;;;;;;4.80;3.50;;;;;;;8.60;100.00;99513.73;105644;1284;61329;-73
2022/12/23 04:05:28;;;;;;;4.20;3.40;;;;;;;8.57;100.00;99516.89;105654;1290;61055;-73
2022/12/23 04:08:05;;;;;;;5.20;3.40;;;;;;;8.56;100.00;99521.46;105671;1292;74421;-73
2022/12/23 04:10:33;;;;;;;5.00;3.80;;;;;;;8.55;100.00;99517.05;105715;1291;69998;-73
2022/12/23 04:13:01;;;;;;;4.80;3.60;;;;;;;8.57;100.00;99517.29;105734;1290;71214;-73
2022/12/23 04:15:27;;;;;;;4.50;3.50;;;;;;;8.60;100.00;99519.06;105753;1284;60964;-73
2022/12/23 04:17:56;;;;;;;4.50;3.50;;;;;;;8.62;100.00;99521.11;105726;1292;59609;-73
2022/12/23 04:20:23;;;;;;;5.20;3.80;;;;;;;8.64;100.00;99523.29;105541;1293;74897;-73
2022/12/23 04:22:50;;;;;;;4.50;3.60;;;;;;;8.66;100.00;99529.44;105668;1290;69762;-73
2022/12/23 04:25:17;;;;;;;4.70;3.30;;;;;;;8.67;100.00;99529.17;105654;1292;59130;-73
2022/12/23 04:27:43;;;;;;;4.20;3.10;;;;;;;8.65;100.00;99529.16;105638;1290;59622;-73
2022/12/23 04:30:12;;;;;;;5.20;3.60;;;;;;;8.63;100.00;99533.36;105746;1292;59425;-73
2022/12/23 04:32:40;;;;;;;6.30;4.00;;;;;;;8.62;100.00;99531.36;105708;1291;73240;-73
2022/12/23 04:35:07;;;;;;;6.10;4.10;;;;;;;8.61;100.00;99533.07;105707;1292;69583;-73
2022/12/23 04:37:34;;;;;;;5.70;4.20;;;;;;;8.60;100.00;99534.44;105513;1294;71629;-73
2022/12/23 04:40:00;;;;;;;6.80;4.70;;;;;;;8.58;100.00;99532.20;105718;1292;58783;-73
2022/12/23 04:42:27;;;;;;;7.40;4.70;;;;;;;8.55;100.00;99537.70;105773;1292;60153;-73
2022/12/23 04:44:53;;;;;;;8.40;4.50;;;;;;;8.54;100.00;99534.72;105762;1290;59350;-73
2022/12/23 04:47:19;;;;;;;6.20;4.30;;;;;;;8.53;100.00;99541.34;105696;1292;59135;-73
2022/12/23 04:49:46;;;;;;;9.10;5.10;;;;;;;8.51;100.00;99541.44;105720;1290;59055;-73
2022/12/23 04:52:12;;;;;;;10.40;5.70;;;;;;;8.49;100.00;99544.71;105723;1291;59304;-73
2022/12/23 04:54:39;;;;;;;9.70;5.60;;;;;;;8.47;100.00;99546.75;105729;1291;59142;-73
2022/12/23 04:57:11;;;;;;;10.10;5.60;;;;;;;8.43;100.00;99549.98;105786;1282;73279;-73
2022/12/23 04:59:38;;;;;;;11.00;4.90;;;;;;;8.42;100.00;99549.94;105621;1294;59027;-72
2022/12/23 05:02:04;;;;;;;7.40;5.00;;;;;;;8.38;100.00;99556.73;105758;1290;59274;-73
2022/12/23 05:04:31;;;;;;;8.60;4.80;;;;;;;8.36;100.00;99557.20;105803;1282;59723;-73
2022/12/23 05:06:58;;;;;;;7.10;4.30;;;;;;;8.32;100.00;99562.23;105721;1287;59500;-73
2022/12/23 05:09:24;;;;;;;7.00;4.20;;;;;;;8.28;100.00;99559.41;105786;1291;59303;-73
2022/12/23 05:11:50;;;;;;;6.70;4.30;;;;;;;8.25;100.00;99568.35;105587;1293;58913;-72
2022/12/23 05:14:17;;;;;;;6.70;4.80;;;;;;;8.18;100.00;99575.92;105750;1292;58959;-73
2022/12/23 05:16:43;;;;;;;7.00;4.90;;;;;;;8.14;100.00;99568.20;105734;1291;59017;-73
2022/12/23 05:19:10;;;;;;;7.20;5.10;;;;;;;8.10;100.00;99566.73;105832;1291;59083;-73
2022/12/23 05:21:36;;;;;;;8.40;5.10;;;;;;;8.07;100.00;99575.52;105772;1291;59387;-73
2022/12/23 05:24:03;;;;;;;9.80;6.20;;;;;;;8.05;100.00;99579.14;105860;1280;59009;-73
2022/12/23 05:26:29;;;;;;;8.40;5.70;;;;;;;8.02;100.00;99580.73;105834;1291;58989;-73
2022/12/23 05:28:56;;;;;;;8.80;5.50;;;;;;;8.00;100.00;99589.09;105749;1290;59082;-73
2022/12/23 05:31:22;;;;;;;10.30;6.60;;;;;;;7.96;100.00;99593.92;105811;1293;59813;-73
2022/12/23 05:33:49;;;;;;;10.10;6.60;;;;;;;7.94;100.00;99597.35;105856;1291;59263;-73
2022/12/23 05:36:15;;;;;;;9.80;6.10;;;;;;;7.92;100.00;99594.11;105847;1291;59110;-73
2022/12/23 05:38:42;;;;;;;9.40;6.20;;;;;;;7.88;100.00;99596.80;105822;1287;59004;-73
2022/12/23 05:41:08;;;;;;;13.30;7.80;;;;;;;7.86;100.00;99603.98;105792;1292;59288;-73
2022/12/23 05:43:35;;;;;;;13.10;7.60;;;;;;;7.85;100.00;99607.39;105803;1291;59468;-73
2022/12/23 05:46:01;;;;;;;11.40;7.00;;;;;;;7.85;100.00;99608.32;105807;1291;59875;-74
2022/12/23 05:48:28;;;;;;;10.90;7.10;;;;;;;7.84;100.00;99613.70;105754;1286;59112;-73
2022/12/23 05:50:54;;;;;;;11.80;6.70;;;;;;;7.83;100.00;99619.49;105812;1288;58909;-73
2022/12/23 05:53:21;;;;;;;10.30;7.10;;;;;;;7.82;100.00;99619.25;105842;1284;58976;-73
2022/12/23 05:55:47;;;;;;;11.70;8.30;;;;;;;7.82;100.00;99619.73;105789;1296;58854;-74
2022/12/23 05:58:14;;;;;;;10.70;7.50;;;;;;;7.82;100.00;99619.90;105815;1292;58942;-74
2022/12/23 06:00:41;;;;;;;9.30;6.20;;;;;;;7.82;100.00;99616.80;105741;1291;70925;-74
2022/12/23 06:03:08;;;;;;;8.50;6.00;;;;;;;7.78;100.00;99618.11;105787;1291;72453;-74
2022/12/23 06:05:36;;;;;;;8.90;6.10;;;;;;;7.76;100.00;99630.77;105752;1292;59697;-73
2022/12/23 06:08:03;;;;;;;8.90;6.40;;;;;;;7.75;100.00;99635.28;105763;1290;60099;-73
2022/12/23 06:10:29;;;;;;;8.10;6.10;;;;;;;7.73;100.00;99639.90;105794;1291;74760;-73
2022/12/23 06:12:56;;;;;;;8.60;6.10;;;;;;;7.71;100.00;99645.60;105583;1294;58961;-74
2022/12/23 06:15:22;;;;;;;9.00;6.30;;;;;;;7.70;100.00;99642.90;105779;1291;59218;-74
2022/12/23 06:17:48;;;;;;;10.10;6.70;;;;;;;7.71;100.00;99640.38;105784;1291;59113;-74
2022/12/23 06:20:15;;;;;;;9.70;6.80;;;;;;;7.70;100.00;99647.03;105784;1283;59703;-74
2022/12/23 06:22:47;;;;;;;11.00;7.20;;;;;;;7.68;100.00;99653.42;105780;1291;73261;-74
2022/12/23 06:25:13;;;;;;;10.60;7.20;;;;;;;7.66;100.00;99654.01;105703;1291;69000;-74
2022/12/23 06:27:39;;;;;;;11.80;8.10;;;;;;;7.64;100.00;99652.67;105777;1291;58954;-74
2022/12/23 06:30:07;;;;;;;11.60;7.70;;;;;;;7.62;100.00;99657.45;105792;1291;58935;-74
2022/12/23 06:32:33;;;;;;;11.20;7.40;;;;;;;7.62;100.00;99661.33;105792;1292;60239;-74
2022/12/23 06:35:05;;;;;;;12.60;7.60;;;;;;;7.60;100.00;99663.14;105778;1291;73581;-74
2022/12/23 06:37:31;;;;;;;11.00;8.00;;;;;;;7.57;100.00;99663.83;105638;1290;211064;-74
2022/12/23 06:39:58;;;;;;;12.20;7.70;;;;;;;7.55;100.00;99664.29;105717;1292;59171;-74
2022/12/23 06:42:24;;;;;;;10.60;7.70;;;;;;;7.52;100.00;99666.35;105787;1282;58948;-74
2022/12/23 06:44:51;;;;;;;11.50;7.90;;;;;;;7.50;100.00;99671.23;105731;1291;59208;-74
2022/12/23 06:47:17;;;;;;;41.50;37.90;;;;;;;7.49;100.00;99674.46;105737;1291;59328;-74
2022/12/23 06:49:43;;;;;;;20.70;18.90;;;;;;;7.49;100.00;99679.41;105806;1292;59331;-74
2022/12/23 06:52:10;;;;;;;13.20;11.50;;;;;;;7.48;100.00;99685.09;105794;1284;59043;-74
2022/12/23 06:54:36;;;;;;;10.10;7.50;;;;;;;7.48;100.00;99692.91;105765;1291;59122;-74
2022/12/23 06:57:03;;;;;;;9.80;6.70;;;;;;;7.45;100.00;99697.23;105822;1290;59083;-73
2022/12/23 06:59:30;;;;;;;10.90;7.50;;;;;;;7.44;100.00;99701.86;105791;1291;59003;-73
2022/12/23 07:01:56;;;;;;;11.50;7.50;;;;;;;7.43;100.00;99706.68;105778;1291;70140;-73
2022/12/23 07:04:23;;;;;;;12.00;7.40;;;;;;;7.42;100.00;99709.77;105799;1284;71722;-73
2022/12/23 07:06:50;;;;;;;12.80;8.30;;;;;;;7.42;100.00;99713.69;105781;1290;59102;-73
2022/12/23 07:09:16;;;;;;;11.40;7.50;;;;;;;7.41;100.00;99717.16;105812;1291;58941;-73
2022/12/23 07:11:42;;;;;;;13.60;7.80;;;;;;;7.38;100.00;99726.05;105785;1292;58868;-73
2022/12/23 07:14:09;;;;;;;14.70;7.70;;;;;;;7.37;100.00;99727.98;105790;1292;59081;-73
2022/12/23 07:16:35;;;;;;;12.60;7.80;;;;;;;7.36;100.00;99723.14;105794;1292;59611;-73
2022/12/23 07:19:02;;;;;;;11.30;7.40;;;;;;;7.37;100.00;99724.64;105857;1292;59284;-73
2022/12/23 07:21:28;;;;;;;11.50;7.30;;;;;;;7.38;100.00;99728.77;105833;1290;58991;-73
2022/12/23 07:23:55;;;;;;;14.40;7.50;;;;;;;7.39;100.00;99731.14;105831;1292;76024;-73
2022/12/23 07:26:22;;;;;;;14.60;7.60;;;;;;;7.39;100.00;99728.95;105841;1292;59376;-74
2022/12/23 07:28:48;;;;;;;11.90;8.20;;;;;;;7.39;100.00;99735.44;105644;1292;59366;-73
2022/12/23 07:31:15;;;;;;;11.90;7.90;;;;;;;7.39;100.00;99737.10;105853;1290;58875;-73
2022/12/23 07:33:42;;;;;;;12.60;8.60;;;;;;;7.38;100.00;99735.92;105741;1295;58846;-73
2022/12/23 07:36:08;;;;;;;13.20;8.40;;;;;;;7.39;100.00;99737.39;105743;1290;74413;-73
2022/12/23 07:38:35;;;;;;;10.80;7.20;;;;;;;7.38;100.00;99739.84;105838;1291;70407;-73
2022/12/23 07:41:01;;;;;;;14.90;8.00;;;;;;;7.33;100.00;99744.16;105773;1290;59000;-73
2022/12/23 07:43:28;;;;;;;11.50;8.10;;;;;;;7.31;100.00;99749.91;105807;1292;59348;-73
2022/12/23 07:45:54;;;;;;;12.70;7.50;;;;;;;7.29;100.00;99751.85;105817;1291;59317;-73
2022/12/23 07:48:26;;;;;;;13.40;7.40;;;;;;;7.28;100.00;99755.52;105848;1292;75204;-73
2022/12/23 07:50:52;;;;;;;12.90;7.50;;;;;;;7.27;100.00;99757.08;105773;1289;59011;-73
2022/12/23 07:53:19;;;;;;;12.90;7.30;;;;;;;7.25;100.00;99756.00;105742;1292;59053;-73
2022/12/23 07:55:45;;;;;;;17.60;8.20;;;;;;;7.27;100.00;99760.52;105786;1287;58993;-73
2022/12/23 07:58:18;;;;;;;14.50;8.50;;;;;;;7.31;100.00;99760.92;105789;1292;58999;-73
2022/12/23 08:00:44;;;;;;;16.90;8.50;;;;;;;7.39;100.00;99769.25;105810;1297;58923;-73
2022/12/23 08:03:11;;;;;;;14.50;8.40;;;;;;;7.44;100.00;99772.58;105811;1290;59137;-73
2022/12/23 08:05:38;;;;;;;19.70;13.40;;;;;;;7.47;100.00;99766.73;105716;1284;71304;-73
2022/12/23 08:08:04;;;;;;;15.00;9.00;;;;;;;7.48;100.00;99770.27;105802;1291;59024;-73
2022/12/23 08:10:30;;;;;;;17.10;9.10;;;;;;;7.49;100.00;99765.20;105816;1291;59063;-73
2022/12/23 08:13:00;;;;;;;15.60;9.80;;;;;;;7.51;100.00;99768.06;105829;1291;59272;-73
2022/12/23 08:15:26;;;;;;;16.30;11.70;;;;;;;7.51;100.00;99778.23;105720;1294;70864;-73
2022/12/23 08:17:55;;;;;;;14.90;9.50;;;;;;;7.48;100.00;99777.69;105807;1287;59359;-73
2022/12/23 08:20:21;;;;;;;14.70;10.00;;;;;;;7.46;100.00;99780.20;105771;1291;60016;-73
2022/12/23 08:22:47;;;;;;;13.60;9.30;;;;;;;7.44;100.00;99786.63;105775;1290;59118;-73
2022/12/23 08:25:14;;;;;;;15.10;10.30;;;;;;;7.43;100.00;99788.84;105780;1291;58926;-73
2022/12/23 08:27:40;;;;;;;13.70;9.60;;;;;;;7.44;100.00;99788.20;105785;1284;59018;-73
2022/12/23 08:30:07;;;;;;;15.10;9.60;;;;;;;7.44;100.00;99785.17;105791;1292;59031;-73
2022/12/23 08:32:34;;;;;;;15.30;9.20;;;;;;;7.47;100.00;99793.23;105858;1290;59605;-73
2022/12/23 08:35:00;;;;;;;13.60;9.40;;;;;;;7.49;100.00;99799.77;105804;1291;59167;-73
2022/12/23 08:37:27;;;;;;;14.30;9.60;;;;;;;7.50;100.00;99805.24;105810;1288;59412;-73
2022/12/23 08:39:53;;;;;;;13.60;8.70;;;;;;;7.52;100.00;99803.91;105856;1288;70093;-73
2022/12/23 08:42:20;;;;;;;14.70;9.70;;;;;;;7.56;100.00;99808.30;105755;1290;59106;-73
2022/12/23 08:44:46;;;;;;;15.40;9.80;;;;;;;7.60;100.00;99803.35;105826;1292;58932;-73
2022/12/23 08:47:13;;;;;;;14.40;9.60;;;;;;;7.64;100.00;99807.02;105827;1284;59144;-73
2022/12/23 08:49:39;;;;;;;16.60;12.50;;;;;;;7.62;100.00;99808.42;105837;1289;58939;-73
2022/12/23 08:52:06;;;;;;;19.10;17.00;;;;;;;7.63;100.00;99815.91;105838;1290;59085;-73
2022/12/23 08:54:32;;;;;;;15.00;10.20;;;;;;;7.64;100.00;99814.87;105801;1291;59229;-69
2022/12/23 08:56:59;;;;;;;14.30;9.60;;;;;;;7.64;100.00;99823.29;105843;1284;59298;-69
2022/12/23 08:59:25;;;;;;;14.40;10.20;;;;;;;7.68;100.00;99821.51;105814;1292;59144;-70
2022/12/23 09:01:51;;;;;;;15.00;9.80;;;;;;;7.73;100.00;99828.42;105777;1291;59141;-70
2022/12/23 09:04:18;;;;;;;17.30;10.90;;;;;;;7.77;100.00;99836.44;105829;1291;59604;-70
2022/12/23 09:06:44;;;;;;;15.60;10.20;;;;;;;7.80;100.00;99834.41;105752;1276;59261;-69
2022/12/23 09:09:13;;;;;;;18.30;11.70;;;;;;;7.82;100.00;99836.73;105760;1288;59068;-69
2022/12/23 09:11:41;;;;;;;15.50;10.20;;;;;;;7.84;100.00;99837.90;105798;1288;59252;-69
2022/12/23 09:14:08;;;;;;;16.70;10.40;;;;;;;7.88;100.00;99836.29;105797;1291;73544;-69
2022/12/23 09:16:35;;;;;;;17.70;11.20;;;;;;;7.92;100.00;99827.34;105746;1288;69753;-69
2022/12/23 09:19:02;;;;;;;16.50;10.60;;;;;;;7.96;100.00;99823.34;105720;1291;73124;-69
2022/12/23 09:21:29;;;;;;;20.00;11.90;;;;;;;7.99;100.00;99830.88;105787;1290;60239;-69
2022/12/23 09:23:55;;;;;;;18.50;11.90;;;;;;;8.02;100.00;99839.04;105744;1289;58792;-69
2022/12/23 09:26:25;;;;;;;18.70;11.90;;;;;;;8.05;100.00;99834.23;105784;1291;59061;-69
2022/12/23 09:28:52;;;;;;;20.60;12.10;;;;;;;8.09;100.00;99824.23;105716;1290;70143;-69
2022/12/23 09:31:19;;;;;;;20.10;12.90;;;;;;;8.14;100.00;99820.46;105721;1293;72676;-69
2022/12/23 09:33:49;;;;;;;20.60;11.90;;;;;;;8.21;100.00;99814.61;105714;1286;60446;-70
2022/12/23 09:36:16;;;;;;;21.60;12.30;;;;;;;8.24;100.00;99812.83;105768;1289;59501;-69
2022/12/23 09:38:43;;;;;;;21.90;12.60;;;;;;;8.27;100.00;99819.83;105701;1297;74430;-70
2022/12/23 09:41:19;;;;;;;21.70;12.50;;;;;;;8.29;100.00;99824.05;105817;1292;71260;-70
2022/12/23 09:43:54;;;;;;;21.70;12.70;;;;;;;8.25;100.00;99825.52;105795;1290;71146;-70
2022/12/23 09:46:24;;;;;;;20.90;13.00;;;;;;;8.23;100.00;99829.39;105802;1290;59654;-69
2022/12/23 09:49:12;;;;;;;23.00;13.40;;;;;;;8.20;100.00;99836.76;105786;1284;60468;-70
2022/12/23 09:51:39;;;;;;;23.10;13.40;;;;;;;8.18;100.00;99839.81;105760;1284;74553;-70
2022/12/23 09:54:25;;;;;;;22.60;13.10;;;;;;;8.17;100.00;99850.13;105810;1290;70821;-69
2022/12/23 09:56:56;;;;;;;21.60;13.00;;;;;;;8.13;100.00;99843.45;105771;1292;71162;-69
2022/12/23 09:59:49;;;;;;;22.80;13.00;;;;;;;8.18;100.00;99842.21;105789;1296;59938;-70
2022/12/23 10:02:28;;;;;;;22.80;13.30;;;;;;;8.25;100.00;99845.95;105832;1297;59646;-70
2022/12/23 10:05:13;;;;;;;24.60;14.10;;;;;;;8.34;100.00;99837.57;105797;1290;73400;-70
2022/12/23 10:07:52;;;;;;;22.50;13.50;;;;;;;8.44;100.00;99844.65;105772;1292;70115;-70
2022/12/23 10:10:43;;;;;;;22.70;13.90;;;;;;;8.48;100.00;99847.86;105802;1292;70326;-69
2022/12/23 10:13:54;;;;;;;23.80;13.40;;;;;;;8.50;100.00;99848.76;105720;1291;61438;-69
2022/12/23 10:16:54;;;;;;;25.30;13.70;;;;;;;8.45;100.00;99845.05;105785;1291;60186;-70
2022/12/23 10:19:41;;;;;;;23.70;13.90;;;;;;;8.42;100.00;99839.11;105671;1292;74470;-69
2022/12/23 10:22:15;;;;;;;23.40;13.40;;;;;;;8.42;100.00;99831.83;105793;1288;71624;-69
2022/12/23 10:24:45;;;;;;;23.30;13.40;;;;;;;8.42;100.00;99827.84;105799;1287;72586;-69
2022/12/23 10:27:25;;;;;;;22.60;13.50;;;;;;;8.41;100.00;99834.11;105852;1290;60703;-70
2022/12/23 10:29:51;;;;;;;22.60;12.90;;;;;;;8.37;100.00;99838.05;105796;1292;59222;-69
2022/12/23 10:32:49;;;;;;;23.00;13.80;;;;;;;8.33;100.00;99843.81;105862;1292;59282;-70
2022/12/23 10:35:24;;;;;;;24.40;13.50;;;;;;;8.30;100.00;99844.02;105873;1290;72827;-70
2022/12/23 10:38:01;;;;;;;25.30;14.40;;;;;;;8.30;100.00;99849.09;105825;1291;72424;-70
2022/12/23 10:40:53;;;;;;;25.60;14.40;;;;;;;8.31;100.00;99850.28;105805;1291;59774;-70
2022/12/23 10:43:37;;;;;;;25.90;14.80;;;;;;;8.31;100.00;99849.02;105846;1292;58875;-70
2022/12/23 10:46:25;;;;;;;24.10;14.60;;;;;;;8.31;100.00;99842.30;105765;1290;75939;-70
2022/12/23 10:49:19;;;;;;;24.10;14.00;;;;;;;8.34;100.00;99839.71;105773;1292;70137;-69
2022/12/23 10:52:00;;;;;;;25.90;14.60;;;;;;;8.33;100.00;99837.86;105833;1290;71129;-70
2022/12/23 10:54:32;;;;;;;25.40;14.10;;;;;;;8.35;100.00;99836.73;105869;1290;59923;-70
2022/12/23 10:57:00;;;;;;;27.70;14.30;;;;;;;8.35;100.00;99830.15;105805;1290;60364;-70
2022/12/23 10:59:30;;;;;;;23.80;13.80;;;;;;;8.37;100.00;99824.08;105783;1291;73075;-70
2022/12/23 11:02:12;;;;;;;23.30;13.10;;;;;;;8.40;100.00;99819.27;105825;1291;70422;-70
2022/12/23 11:04:42;;;;;;;23.70;13.50;;;;;;;8.40;100.00;99818.02;105825;1291;71060;-70
2022/12/23 11:07:13;;;;;;;23.50;13.60;;;;;;;8.41;100.00;99814.16;105700;1292;61094;-70
2022/12/23 11:10:06;;;;;;;27.30;16.00;;;;;;;8.43;100.00;99806.36;105820;1284;60086;-70
2022/12/23 11:12:42;;;;;;;28.10;16.70;;;;;;;8.48;100.00;99808.47;105773;1290;73732;-70
2022/12/23 11:15:39;;;;;;;24.90;15.30;;;;;;;8.52;100.00;99807.27;105811;1284;69532;-70
2022/12/23 11:18:06;;;;;;;23.90;14.70;;;;;;;8.53;100.00;99807.48;105725;1292;73161;-70
2022/12/23 11:20:35;;;;;;;23.20;13.40;;;;;;;8.53;100.00;99806.19;105808;1291;59079;-70
2022/12/23 11:23:05;;;;;;;22.00;12.80;;;;;;;8.53;100.00;99811.68;105610;1277;59555;-69
2022/12/23 11:25:39;;;;;;;21.60;13.10;;;;;;;8.50;100.00;99814.52;105784;1287;73616;-70
2022/12/23 11:28:09;;;;;;;22.70;13.70;;;;;;;8.48;100.00;99812.66;105710;1291;69684;-70
2022/12/23 11:30:51;;;;;;;23.10;13.60;;;;;;;8.47;100.00;99810.66;105756;1291;72944;-70
2022/12/23 11:33:31;;;;;;;23.50;14.30;;;;;;;8.45;100.00;99809.73;105828;1292;60445;-70
2022/12/23 11:36:11;;;;;;;23.10;13.90;;;;;;;8.44;100.00;99815.27;105715;1292;59435;-70
2022/12/23 11:39:00;;;;;;;22.90;13.20;;;;;;;8.43;100.00;99816.17;105773;1292;73388;-70
2022/12/23 11:41:29;;;;;;;23.00;13.20;;;;;;;8.40;100.00;99811.61;105805;1291;69636;-70
2022/12/23 11:44:00;;;;;;;24.30;14.70;;;;;;;8.38;100.00;99812.35;105627;1285;71737;-70
2022/12/23 11:46:29;;;;;;;23.00;13.40;;;;;;;8.36;100.00;99806.10;105825;1289;59666;-70
2022/12/23 11:49:17;;;;;;;19.80;12.70;;;;;;;8.35;100.00;99805.58;105781;1284;60426;-70
2022/12/23 11:51:58;;;;;;;20.70;12.50;;;;;;;8.33;100.00;99804.52;105819;1284;74390;-70
2022/12/23 11:54:26;;;;;;;21.30;12.40;;;;;;;8.32;100.00;99801.08;105708;1292;72141;-70
2022/12/23 11:56:53;;;;;;;22.50;13.10;;;;;;;8.33;100.00;99798.36;105742;1286;73089;-70
2022/12/23 11:59:31;;;;;;;22.40;13.30;;;;;;;8.36;100.00;99798.39;105772;1291;59617;-70
2022/12/23 12:02:00;;;;;;;23.70;13.00;;;;;;;8.39;100.00;99797.67;105780;1290;59410;-70
2022/12/23 12:04:32;;;;;;;23.70;13.30;;;;;;;8.44;100.00;99793.79;105736;1291;74271;-70
2022/12/23 12:06:59;;;;;;;23.30;13.60;;;;;;;8.48;100.00;99789.90;105835;1289;69514;-70